Brighton, MI (48116)

11:09 PM EST on February 21, 2017 (GMT -0500)
Main Street | | Change Station
Active Advisory: Dense Fog Advisory

Elev 939 ft 42.53 °N, 83.80 °W | Updated 12 seconds ago

Partly Cloudy
Partly Cloudy
44.8 °F
Feels Like 45 °F
N
0.0
Wind Variable Wind from NW
Gusts 0.0 mph

Today
High -- | Low -- °F
--% Chance of Precip.
Yesterday
High -- | Low -- °F
Precip. -- in
Pressure 29.91 in
Visibility 0.5 miles
Clouds Mostly Cloudy 700 ft
Windchill 45 °F
Dew Point 43 °F
Humidity 92%
Rainfall 0.00 in
Snow Depth Not available.
7:22 AM 6:15 PM
Waning Crescent, 20% visible
METAR KOZW 220354Z AUTO 00000KT 1/2SM FG BKN007 09/08 A2991 RMK AO2 T00870078
Pressure 29.91 in
Visibility 0.5 miles
Clouds Mostly Cloudy 700 ft
Windchill 45 °F
Dew Point 43 °F
Humidity 92%
Rainfall 0.00 in
Snow Depth Not available.
7:22 AM 6:15 PM
Waning Crescent, 20% visible
METAR KOZW 220354Z AUTO 00000KT 1/2SM FG BKN007 09/08 A2991 RMK AO2 T00870078

Get Your Daily Forecast Email!

Thanks for signing up!

Be on the lookout for a verification email in your inbox.

You'll start receiving the daily forecast at 8 AM.

×

10-Day Weather Forecast

Almanac

Astronomy

Feb. 21, 2017 Rise Set
Actual Time
Civil Twilight
Nautical Twilight
Astronomical Twilight
Moon
Length of Visible Light
Length of Day
Tomorrow will be .
, % of the Moon is Illuminated

Today's Extremes

State Highs State Lows

Community

WunderPhotos

Upload Photos

1,962,540 photos uploaded!

WunderBlog® & News

Nearby

Air Quality

  Air Quality AQ Index Pollutant
Not available.

Snow Depth

Station Depth Elevation

Earthquake Activity

City Distance Mag. Time & Date
Minimum magnitude displayed is 2.5.

Coastal Water Temperatures

Place Temperature

Stations

Nearby Weather Stations

Station Location Temp. Windchill Dew Point Humidity Wind Precip. Elev Updated Type
                   

Watches & Warnings

Dense Fog Advisory
Issued: 10:37 PM EST Feb. 21, 2017 – National Weather Service

... Dense fog advisory in effect until 9 am EST Wednesday...

The National Weather Service in Detroit/Pontiac has issued a
dense fog advisory, which is in effect until 9 am EST Wednesday.

Hazardous weather...

* dense fog will gradually become more widespread late this
   evening into the overnight hours.

* Visibilities will be less than one quarter of a mile at times.

* Fog will persist into Wednesday morning before dissipating.

Impacts...

* hazardous driving conditions within areas of poor or rapidly
   fluctuating visibilities.

Precautionary/preparedness actions...

A dense fog advisory means visibilities will frequently be
reduced to less than one quarter mile. If driving, slow down, use
your headlights and leave plenty of distance ahead of you.

* Prepare, plan and stay informed. Visit http://go.USA.Gov/c7kkp




Dg